createdAt,value
2019-05-14T00:00:44.024Z,14.69
2019-05-14T00:03:15.769Z,14.73
2019-05-14T00:05:47.108Z,14.72
2019-05-14T00:08:18.427Z,14.69
2019-05-14T00:10:51.810Z,14.74
2019-05-14T00:13:22.766Z,14.64
2019-05-14T00:15:54.168Z,14.68
2019-05-14T00:18:25.706Z,14.71
2019-05-14T00:20:57.399Z,14.69
2019-05-14T00:23:28.648Z,14.61
2019-05-14T00:26:01.672Z,14.54
2019-05-14T00:28:33.233Z,14.59
2019-05-14T00:31:05.094Z,14.57
2019-05-14T00:33:36.617Z,14.56
2019-05-14T00:36:08.144Z,14.59
2019-05-14T00:38:41.783Z,14.58
2019-05-14T00:41:12.781Z,14.63
2019-05-14T00:43:44.236Z,14.62
2019-05-14T00:46:15.572Z,14.59
2019-05-14T00:48:47.023Z,14.58
2019-05-14T00:51:18.464Z,14.57
2019-05-14T00:53:51.588Z,14.66
2019-05-14T00:56:23.016Z,14.62
2019-05-14T00:58:54.421Z,14.61
2019-05-14T01:01:25.823Z,14.54
2019-05-14T01:03:57.318Z,14.55
2019-05-14T01:06:31.280Z,14.54
2019-05-14T01:09:01.682Z,14.57
2019-05-14T01:11:33.819Z,14.61
2019-05-14T01:14:05.221Z,14.55
2019-05-14T01:16:36.708Z,14.61
2019-05-14T01:19:08.011Z,14.59
2019-05-14T01:21:41.609Z,14.58
2019-05-14T01:24:12.695Z,14.52
2019-05-14T01:26:44.200Z,14.58
2019-05-14T01:29:15.796Z,14.51
2019-05-14T01:31:47.129Z,14.55
2019-05-14T01:34:18.533Z,14.54
2019-05-14T01:36:50.024Z,14.53
2019-05-14T01:39:21.888Z,14.51
2019-05-14T01:41:53.404Z,14.51
2019-05-14T01:44:24.778Z,14.48
2019-05-14T01:46:57.288Z,14.44
2019-05-14T01:49:28.826Z,14.51
2019-05-14T01:52:01.787Z,14.51
2019-05-14T01:54:33.457Z,14.49
2019-05-14T01:57:04.812Z,14.58
2019-05-14T01:59:36.258Z,14.54
2019-05-14T02:02:07.615Z,14.52
2019-05-14T02:04:38.961Z,14.54
2019-05-14T02:07:11.547Z,14.51
2019-05-14T02:09:43.226Z,14.52
2019-05-14T02:12:15.679Z,14.52
2019-05-14T02:14:47.231Z,14.50
2019-05-14T02:17:18.671Z,14.53
2019-05-14T02:19:51.537Z,14.58
2019-05-14T02:22:23.152Z,14.65
2019-05-14T02:24:54.560Z,14.80
2019-05-14T02:27:25.831Z,14.84
2019-05-14T02:29:57.257Z,15.05
2019-05-14T02:32:29.817Z,15.20
2019-05-14T02:35:01.389Z,15.59
2019-05-14T02:37:32.757Z,16.11
2019-05-14T02:40:09.620Z,16.17
2019-05-14T02:42:40.419Z,16.68
2019-05-14T02:45:12.498Z,16.99
2019-05-14T02:47:43.875Z,16.86
2019-05-14T02:50:15.420Z,17.26
2019-05-14T02:52:49.719Z,17.07
2019-05-14T02:55:20.153Z,17.56
2019-05-14T02:57:51.595Z,17.99
2019-05-14T03:00:23.172Z,17.89
2019-05-14T03:02:54.531Z,17.38
2019-05-14T03:05:29.324Z,17.83
2019-05-14T03:07:59.951Z,17.86
2019-05-14T03:10:31.553Z,18.18
2019-05-14T03:13:03.002Z,18.22
2019-05-14T03:15:34.440Z,18.14
2019-05-14T03:18:05.775Z,18.51
2019-05-14T03:20:39.117Z,18.21
2019-05-14T03:23:18.161Z,18.63
2019-05-14T03:25:43.480Z,18.79
2019-05-14T03:28:14.863Z,19.04
2019-05-14T03:30:51.380Z,18.86
2019-05-14T03:33:21.882Z,18.98
2019-05-14T03:36:01.591Z,18.66
2019-05-14T03:38:29.347Z,19.07
2019-05-14T03:41:00.515Z,19.16
2019-05-14T03:43:31.993Z,18.79
2019-05-14T03:46:03.433Z,19.82
2019-05-14T03:48:34.877Z,19.55
2019-05-14T03:51:08.958Z,19.04
2019-05-14T03:53:55.081Z,18.97
2019-05-14T03:56:12.456Z,19.79
2019-05-14T03:58:43.853Z,19.24
2019-05-14T04:01:15.454Z,19.26
2019-05-14T04:03:50.051Z,18.41
2019-05-14T04:06:19.580Z,19.29
2019-05-14T04:08:51.816Z,20.09
2019-05-14T04:11:25.469Z,19.83
2019-05-14T04:14:00.381Z,19.19
2019-05-14T04:16:34.643Z,19.52
2019-05-14T04:19:09.990Z,18.40
2019-05-14T04:21:41.846Z,18.54
2019-05-14T04:24:15.073Z,18.30
2019-05-14T04:27:02.074Z,18.23
2019-05-14T04:29:25.027Z,18.17
2019-05-14T04:32:00.210Z,17.60
2019-05-14T04:34:31.210Z,18.05
2019-05-14T04:37:03.488Z,18.04
2019-05-14T04:39:34.933Z,17.39
2019-05-14T04:42:09.265Z,17.80
2019-05-14T04:44:40.520Z,17.71
2019-05-14T04:47:26.313Z,17.96
2019-05-14T04:49:44.573Z,17.56
2019-05-14T04:52:20.252Z,17.85
2019-05-14T04:54:50.345Z,17.59
2019-05-14T04:57:25.491Z,17.59
2019-05-14T04:59:55.118Z,17.90
2019-05-14T05:02:29.822Z,17.90
2019-05-14T05:04:59.654Z,17.80
2019-05-14T05:07:31.097Z,18.17
2019-05-14T05:10:02.488Z,17.89
2019-05-14T05:12:33.803Z,17.99
2019-05-14T05:15:09.433Z,17.87
2019-05-14T05:17:48.014Z,17.96
2019-05-14T05:20:14.604Z,17.71
2019-05-14T05:22:48.365Z,17.82
2019-05-14T05:25:19.052Z,18.23
2019-05-14T05:27:50.444Z,18.12
2019-05-14T05:30:21.999Z,17.81
2019-05-14T05:32:53.421Z,18.01
2019-05-14T05:35:25.208Z,17.85
2019-05-14T05:37:58.344Z,17.83
2019-05-14T05:40:29.895Z,18.11
2019-05-14T05:43:01.388Z,18.37
2019-05-14T05:45:32.832Z,18.35
2019-05-14T05:48:04.154Z,18.37
2019-05-14T05:50:35.529Z,18.46
2019-05-14T05:53:09.010Z,18.57
2019-05-14T05:55:39.824Z,18.51
2019-05-14T05:58:11.280Z,18.66
2019-05-14T06:00:42.655Z,18.65
2019-05-14T06:03:13.965Z,18.82
2019-05-14T06:05:45.372Z,18.90
2019-05-14T06:08:18.900Z,18.79
2019-05-14T06:10:49.892Z,19.11
2019-05-14T06:13:21.421Z,19.18
2019-05-14T06:15:52.786Z,18.80
2019-05-14T06:18:24.154Z,19.16
2019-05-14T06:20:55.605Z,19.29
2019-05-14T06:23:28.425Z,18.94
2019-05-14T06:26:00.300Z,18.99
2019-05-14T06:28:33.660Z,19.21
2019-05-14T06:31:05.339Z,19.37
2019-05-14T06:33:39.121Z,19.44
2019-05-14T06:36:14.182Z,19.59
2019-05-14T06:38:43.645Z,19.78
2019-05-14T06:41:15.036Z,19.83
2019-05-14T06:43:48.734Z,19.86
2019-05-14T06:46:19.565Z,19.81
2019-05-14T06:48:50.898Z,19.82
2019-05-14T06:51:22.383Z,19.87
2019-05-14T06:53:53.791Z,19.90
2019-05-14T06:56:25.240Z,19.94
2019-05-14T06:58:58.510Z,19.98
2019-05-14T07:01:32.639Z,19.95
2019-05-14T07:04:04.399Z,20.11
2019-05-14T07:06:51.818Z,20.26
2019-05-14T07:09:38.433Z,20.59
2019-05-14T07:12:14.432Z,20.58
2019-05-14T07:14:48.212Z,20.75
2019-05-14T07:17:19.911Z,20.49
2019-05-14T07:19:51.425Z,20.68
2019-05-14T07:22:22.890Z,20.80
2019-05-14T07:24:54.277Z,20.76
2019-05-14T07:27:28.258Z,21.01
2019-05-14T07:29:59.762Z,21.00
2019-05-14T07:32:31.087Z,20.85
2019-05-14T07:35:02.453Z,21.16
2019-05-14T07:37:34.012Z,21.45
2019-05-14T07:40:08.571Z,21.53
2019-05-14T07:42:39.637Z,21.45
2019-05-14T07:45:11.256Z,21.56
2019-05-14T07:47:42.722Z,21.59
2019-05-14T07:50:14.767Z,21.66
2019-05-14T07:52:46.274Z,21.74
2019-05-14T07:55:18.610Z,21.70
2019-05-14T07:57:50.472Z,21.88
2019-05-14T08:00:22.943Z,21.92
2019-05-14T08:02:54.354Z,22.18
2019-05-14T08:05:25.837Z,22.17
2019-05-14T08:07:58.577Z,22.03
2019-05-14T08:10:30.319Z,22.21
2019-05-14T08:13:01.731Z,21.63
2019-05-14T08:15:34.283Z,21.90
2019-05-14T08:18:07.909Z,21.73
2019-05-14T08:20:38.850Z,22.04
2019-05-14T08:23:10.433Z,21.91
2019-05-14T08:25:41.946Z,21.91
2019-05-14T08:28:13.272Z,21.99
2019-05-14T08:30:44.633Z,22.32
2019-05-14T08:33:18.273Z,22.20
2019-05-14T08:35:49.043Z,22.40
2019-05-14T08:38:20.705Z,22.62
2019-05-14T08:40:52.293Z,22.66
2019-05-14T08:43:23.824Z,22.78
2019-05-14T08:45:55.150Z,22.84
2019-05-14T08:48:29.306Z,23.20
2019-05-14T08:50:58.917Z,23.13
2019-05-14T08:53:30.009Z,23.07
2019-05-14T08:56:01.513Z,23.09
2019-05-14T08:58:32.968Z,23.01
2019-05-14T09:01:04.545Z,23.29
2019-05-14T09:03:36.066Z,23.19
2019-05-14T09:06:09.347Z,23.29
2019-05-14T09:08:41.812Z,23.01
2019-05-14T09:11:13.741Z,23.11
2019-05-14T09:13:45.165Z,22.83
2019-05-14T09:19:15.510Z,22.94
2019-05-14T09:21:49.368Z,23.02
2019-05-14T09:24:19.919Z,22.66
2019-05-14T09:26:51.374Z,22.67
2019-05-14T09:29:26.119Z,23.21
2019-05-14T09:31:58.975Z,23.00
2019-05-14T09:34:30.031Z,22.96
2019-05-14T09:37:01.459Z,22.91
2019-05-14T09:39:32.836Z,22.93
2019-05-14T09:42:04.176Z,22.92
2019-05-14T09:44:35.660Z,23.08
2019-05-14T09:47:08.612Z,23.40
2019-05-14T09:49:41.362Z,23.32
2019-05-14T09:52:12.823Z,23.12
2019-05-14T09:54:44.349Z,23.47
2019-05-14T09:57:15.816Z,23.52
2019-05-14T09:59:47.985Z,23.31
2019-05-14T10:02:19.647Z,23.57
2019-05-14T10:04:51.101Z,23.52
2019-05-14T10:07:22.507Z,23.65
2019-05-14T10:09:54.078Z,23.37
2019-05-14T10:12:25.464Z,23.37
2019-05-14T10:14:59.137Z,23.79
2019-05-14T10:17:29.782Z,24.03
2019-05-14T10:20:01.116Z,24.05
2019-05-14T10:22:33.409Z,23.89
2019-05-14T10:25:05.565Z,23.61
2019-05-14T10:27:36.950Z,23.83
2019-05-14T10:30:10.521Z,24.02
2019-05-14T10:32:42.083Z,23.78
2019-05-14T10:35:15.385Z,24.30
2019-05-14T10:37:46.795Z,24.12
2019-05-14T10:40:20.045Z,23.87
2019-05-14T10:42:51.478Z,23.59
2019-05-14T10:45:22.923Z,23.57
2019-05-14T10:47:54.374Z,23.30
2019-05-14T10:50:25.721Z,23.52
2019-05-14T10:52:59.487Z,23.85
2019-05-14T10:55:31.366Z,23.61
2019-05-14T10:58:02.905Z,23.77
2019-05-14T11:00:34.414Z,23.85
2019-05-14T11:03:05.730Z,24.05
2019-05-14T11:05:41.295Z,24.13
2019-05-14T11:08:12.022Z,23.91
2019-05-14T11:10:42.807Z,24.43
2019-05-14T11:13:14.316Z,24.30
2019-05-14T11:15:48.620Z,24.35
2019-05-14T11:18:20.147Z,24.69
2019-05-14T11:20:51.857Z,24.76
2019-05-14T11:23:23.499Z,24.60
2019-05-14T11:25:54.955Z,24.71
2019-05-14T11:28:28.707Z,24.78
2019-05-14T11:30:59.693Z,24.48
2019-05-14T11:33:31.048Z,24.64
2019-05-14T11:36:02.497Z,25.07
2019-05-14T11:38:37.495Z,24.57
2019-05-14T11:41:06.261Z,24.67
2019-05-14T11:43:39.837Z,24.60
2019-05-14T11:46:09.859Z,24.15
2019-05-14T11:48:41.107Z,23.95
2019-05-14T11:51:12.477Z,24.20
2019-05-14T11:53:43.881Z,24.39
2019-05-14T11:56:15.230Z,24.33
2019-05-14T11:58:46.604Z,24.38
2019-05-14T12:01:18.921Z,24.22
2019-05-14T12:03:50.942Z,24.01
2019-05-14T12:06:22.365Z,24.13
2019-05-14T12:08:53.817Z,24.21
2019-05-14T12:11:25.148Z,24.10
2019-05-14T12:13:59.649Z,23.93
2019-05-14T12:16:29.478Z,23.83
2019-05-14T12:19:00.727Z,23.95
2019-05-14T12:21:32.208Z,23.96
2019-05-14T12:24:06.012Z,23.87
2019-05-14T12:26:38.529Z,23.71
2019-05-14T12:29:10.271Z,23.50
2019-05-14T12:31:41.807Z,23.78
2019-05-14T12:34:13.235Z,23.90
2019-05-14T12:36:44.604Z,23.84
2019-05-14T12:39:18.609Z,23.77
2019-05-14T12:41:48.971Z,23.80
2019-05-14T12:44:21.888Z,23.67
2019-05-14T12:46:53.437Z,23.76
2019-05-14T12:49:25.024Z,23.98
2019-05-14T12:51:59.140Z,24.17
2019-05-14T12:54:29.969Z,24.22
2019-05-14T12:57:01.577Z,24.13
2019-05-14T12:59:33.231Z,24.26
2019-05-14T13:02:04.879Z,24.34
2019-05-14T13:04:36.393Z,24.41
2019-05-14T13:07:09.119Z,24.47
2019-05-14T13:09:40.830Z,24.12
2019-05-14T13:12:12.420Z,24.15
2019-05-14T13:14:43.854Z,24.27
2019-05-14T13:17:15.349Z,24.21
2019-05-14T13:19:48.715Z,24.21
2019-05-14T13:22:36.441Z,24.07
2019-05-14T13:24:52.056Z,24.23
2019-05-14T13:27:23.345Z,24.14
2019-05-14T13:29:54.798Z,24.24
2019-05-14T13:32:28.735Z,24.13
2019-05-14T13:34:59.184Z,24.22
2019-05-14T13:37:31.545Z,24.14
2019-05-14T13:40:03.636Z,24.27
2019-05-14T13:42:35.226Z,24.36
2019-05-14T13:45:10.249Z,24.21
2019-05-14T13:47:42.088Z,24.24
2019-05-14T13:50:14.170Z,24.15
2019-05-14T13:53:02.073Z,24.36
2019-05-14T13:55:20.175Z,24.47
2019-05-14T13:57:51.631Z,24.28
2019-05-14T14:00:23.797Z,24.20
2019-05-14T14:02:55.281Z,24.21
2019-05-14T14:05:26.622Z,24.15
2019-05-14T14:07:59.013Z,24.12
2019-05-14T14:10:36.201Z,24.06
2019-05-14T14:13:06.688Z,24.26
2019-05-14T14:15:38.472Z,24.27
2019-05-14T14:18:09.190Z,24.19
2019-05-14T14:20:40.625Z,24.13
2019-05-14T14:23:21.797Z,24.14
2019-05-14T14:25:44.496Z,24.17
2019-05-14T14:28:15.613Z,24.21
2019-05-14T14:30:49.174Z,24.27
2019-05-14T14:33:19.489Z,24.14
2019-05-14T14:35:50.670Z,24.14
2019-05-14T14:38:21.994Z,24.21
2019-05-14T14:40:53.358Z,24.21
2019-05-14T14:43:24.768Z,24.08
2019-05-14T14:45:59.374Z,23.94
2019-05-14T14:48:30.709Z,24.05
2019-05-14T14:51:02.391Z,24.02
2019-05-14T14:53:51.988Z,23.93
2019-05-14T14:56:09.370Z,23.85
2019-05-14T14:58:39.439Z,23.90
2019-05-14T15:01:10.816Z,23.82
2019-05-14T15:03:42.218Z,23.84
2019-05-14T15:06:13.844Z,23.90
2019-05-14T15:08:45.359Z,23.87
2019-05-14T15:11:16.808Z,23.83
2019-05-14T15:13:48.494Z,23.78
2019-05-14T15:16:20.464Z,23.69
2019-05-14T15:18:51.979Z,23.66
2019-05-14T15:21:23.434Z,23.78
2019-05-14T15:24:07.148Z,23.74
2019-05-14T15:26:28.885Z,23.67
2019-05-14T15:29:00.371Z,23.74
2019-05-14T15:31:32.148Z,23.76
2019-05-14T15:34:03.758Z,23.67
2019-05-14T15:36:35.107Z,23.78
2019-05-14T15:39:09.718Z,23.59
2019-05-14T15:41:41.195Z,23.53
2019-05-14T15:44:12.536Z,23.54
2019-05-14T15:46:43.884Z,23.51
2019-05-14T15:49:15.350Z,23.52
2019-05-14T15:51:46.784Z,23.56
2019-05-14T15:54:36.125Z,23.48
2019-05-14T15:56:51.113Z,23.55
2019-05-14T15:59:22.470Z,23.47
2019-05-14T16:01:53.986Z,23.41
2019-05-14T16:04:25.375Z,23.35
2019-05-14T16:06:58.635Z,23.28
2019-05-14T16:09:30.539Z,23.20
2019-05-14T16:12:01.970Z,23.11
2019-05-14T16:14:33.432Z,23.01
2019-05-14T16:17:04.984Z,22.95
2019-05-14T16:19:36.325Z,22.90
2019-05-14T16:22:09.773Z,22.88
2019-05-14T16:24:55.766Z,22.81
2019-05-14T16:27:13.059Z,22.72
2019-05-14T16:29:46.004Z,22.71
2019-05-14T16:32:17.689Z,22.62
2019-05-14T16:34:49.272Z,22.61
2019-05-14T16:37:21.314Z,22.53
2019-05-14T16:39:52.770Z,22.53
2019-05-14T16:42:25.232Z,22.51
2019-05-14T16:44:56.659Z,22.44
2019-05-14T16:47:28.758Z,22.41
2019-05-14T16:50:00.407Z,22.33
2019-05-14T16:52:31.742Z,22.32
2019-05-14T16:55:18.309Z,22.32
2019-05-14T16:57:38.667Z,22.27
2019-05-14T17:00:10.582Z,22.20
2019-05-14T17:02:41.883Z,22.15
2019-05-14T17:05:13.392Z,22.09
2019-05-14T17:07:44.770Z,22.08
2019-05-14T17:10:18.194Z,22.00
2019-05-14T17:12:56.687Z,21.99
2019-05-14T17:15:21.392Z,21.95
2019-05-14T17:17:52.919Z,21.93
2019-05-14T17:22:55.906Z,21.74
2019-05-14T17:25:30.342Z,21.79
2019-05-14T17:28:00.228Z,21.75
2019-05-14T17:30:31.783Z,21.64
2019-05-14T17:33:03.380Z,21.57
2019-05-14T17:35:34.819Z,21.54
2019-05-14T17:38:06.133Z,21.48
2019-05-14T17:40:39.683Z,21.36
2019-05-14T17:43:10.589Z,21.45
2019-05-14T17:45:42.089Z,21.31
2019-05-14T17:48:28.939Z,21.16
2019-05-14T17:51:00.496Z,21.05
2019-05-14T17:53:31.988Z,21.00
2019-05-14T17:56:03.301Z,20.93
2019-05-14T17:58:34.675Z,20.89
2019-05-14T18:01:08.807Z,20.92
2019-05-14T18:03:39.982Z,20.92
2019-05-14T18:06:12.001Z,20.84
2019-05-14T18:08:43.458Z,20.80
2019-05-14T18:11:14.854Z,20.73
2019-05-14T18:13:48.472Z,20.65
2019-05-14T18:16:20.367Z,20.58
2019-05-14T18:18:51.818Z,20.49
2019-05-14T18:21:23.318Z,20.48
2019-05-14T18:23:58.428Z,20.41
2019-05-14T18:26:30.821Z,20.38
2019-05-14T18:29:04.511Z,20.38
2019-05-14T18:31:35.434Z,20.35
2019-05-14T18:34:06.984Z,20.32
2019-05-14T18:36:39.516Z,20.37
2019-05-14T18:39:28.342Z,20.31
2019-05-14T18:42:00.812Z,20.28
2019-05-14T18:44:32.514Z,20.41
2019-05-14T18:47:03.999Z,20.40
2019-05-14T18:49:35.377Z,20.42
2019-05-14T18:52:08.936Z,20.33
2019-05-14T18:54:41.266Z,20.28
2019-05-14T18:57:18.032Z,20.26
2019-05-14T18:59:49.792Z,20.34
2019-05-14T19:02:21.225Z,20.34
2019-05-14T19:05:08.566Z,20.25
2019-05-14T19:07:51.420Z,20.31
2019-05-14T19:10:22.895Z,20.19
2019-05-14T19:12:54.551Z,20.11
2019-05-14T19:15:26.014Z,20.08
2019-05-14T19:18:00.996Z,20.11
2019-05-14T19:20:29.865Z,20.07
2019-05-14T19:23:01.166Z,20.01
2019-05-14T19:25:32.688Z,20.01
2019-05-14T19:28:04.147Z,20.00
2019-05-14T19:30:37.974Z,20.01
2019-05-14T19:33:08.708Z,20.04
2019-05-14T19:35:40.171Z,20.03
2019-05-14T19:38:14.367Z,19.99
2019-05-14T19:40:48.248Z,19.96
2019-05-14T19:43:19.179Z,19.92
2019-05-14T19:45:50.701Z,19.87
2019-05-14T19:48:22.302Z,19.83
2019-05-14T19:50:53.723Z,19.77
2019-05-14T19:53:25.044Z,19.74
2019-05-14T19:55:59.195Z,19.69
2019-05-14T19:58:29.708Z,19.72
2019-05-14T20:01:02.292Z,19.75
2019-05-14T20:03:33.859Z,19.73
2019-05-14T20:06:08.816Z,19.67
2019-05-14T20:08:39.557Z,19.61
2019-05-14T20:11:11.000Z,19.53
2019-05-14T20:13:42.395Z,19.45
2019-05-14T20:16:13.851Z,19.43
2019-05-14T20:18:45.192Z,19.40
2019-05-14T20:21:16.627Z,19.38
2019-05-14T20:23:48.271Z,19.35
2019-05-14T20:26:19.887Z,19.30
2019-05-14T20:28:51.308Z,19.26
2019-05-14T20:31:22.735Z,19.20
2019-05-14T20:33:54.215Z,19.12
2019-05-14T20:36:28.077Z,19.03
2019-05-14T20:38:59.016Z,18.98
2019-05-14T20:41:30.394Z,18.95
2019-05-14T20:44:01.846Z,18.91
2019-05-14T20:46:33.162Z,18.87
2019-05-14T20:49:05.036Z,18.85
2019-05-14T20:51:38.677Z,18.82
2019-05-14T20:54:09.404Z,18.74
2019-05-14T20:56:40.844Z,18.74
2019-05-14T20:59:12.293Z,18.68
2019-05-14T21:01:43.607Z,18.61
2019-05-14T21:04:14.992Z,18.53
2019-05-14T21:06:48.462Z,18.43
2019-05-14T21:09:19.482Z,18.35
2019-05-14T21:11:50.759Z,18.37
2019-05-14T21:14:25.090Z,18.35
2019-05-14T21:16:55.190Z,18.36
2019-05-14T21:19:28.316Z,18.09
2019-05-14T21:22:01.217Z,18.17
2019-05-14T21:24:32.695Z,18.23
2019-05-14T21:27:04.102Z,18.23
2019-05-14T21:29:35.446Z,18.24
2019-05-14T21:32:08.542Z,18.23
2019-05-14T21:34:39.964Z,18.20
2019-05-14T21:37:11.569Z,18.18
2019-05-14T21:39:43.132Z,18.18
2019-05-14T21:42:14.554Z,18.16
2019-05-14T21:44:45.994Z,18.11
2019-05-14T21:47:17.449Z,18.05
2019-05-14T21:49:50.375Z,17.99
2019-05-14T21:52:22.702Z,17.98
2019-05-14T21:54:54.146Z,17.90
2019-05-14T21:57:28.262Z,17.78
2019-05-14T21:59:59.002Z,17.80
2019-05-14T22:02:30.671Z,17.82
2019-05-14T22:05:03.391Z,17.88
2019-05-14T22:07:34.814Z,17.88
2019-05-14T22:10:07.810Z,17.91
2019-05-14T22:12:39.600Z,17.86
2019-05-14T22:15:11.483Z,17.84
2019-05-14T22:17:42.787Z,17.76
2019-05-14T22:20:14.809Z,17.78
2019-05-14T22:22:48.207Z,17.73
2019-05-14T22:25:19.188Z,17.72
2019-05-14T22:27:50.395Z,17.50
2019-05-14T22:30:21.842Z,17.43
2019-05-14T22:32:53.218Z,17.46
2019-05-14T22:35:24.635Z,17.50
2019-05-14T22:37:56.096Z,17.55
2019-05-14T22:40:29.218Z,17.61
2019-05-14T22:43:00.476Z,17.57
2019-05-14T22:45:31.796Z,17.57
2019-05-14T22:48:03.289Z,17.50
2019-05-14T22:50:34.676Z,17.40
2019-05-14T22:53:05.896Z,17.42
2019-05-14T22:55:38.230Z,17.41
2019-05-14T22:58:23.614Z,17.40
2019-05-14T23:00:46.995Z,17.40
2019-05-14T23:03:15.733Z,17.44
2019-05-14T23:05:48.514Z,17.38
2019-05-14T23:08:19.896Z,17.40
2019-05-14T23:10:51.214Z,17.36
2019-05-14T23:13:22.523Z,17.41
2019-05-14T23:15:53.819Z,17.37
2019-05-14T23:18:25.014Z,17.30
2019-05-14T23:20:58.692Z,17.19
2019-05-14T23:23:29.346Z,17.23
2019-05-14T23:26:00.722Z,17.19
2019-05-14T23:28:41.873Z,17.27
2019-05-14T23:31:05.079Z,17.37
2019-05-14T23:33:38.633Z,17.31
2019-05-14T23:36:09.560Z,17.19
2019-05-14T23:38:41.068Z,17.24
2019-05-14T23:41:12.545Z,17.28
2019-05-14T23:43:43.842Z,17.41
2019-05-14T23:46:15.116Z,17.32
2019-05-14T23:48:48.470Z,17.25
2019-05-14T23:51:19.555Z,17.23
2019-05-14T23:53:50.718Z,17.27
2019-05-14T23:56:22.018Z,17.29
2019-05-14T23:58:57.906Z,17.32
